createdAt,value
2022-08-23T00:02:23.847Z,99974.69
2022-08-23T00:05:08.254Z,99972.59
2022-08-23T00:07:39.360Z,99979.72
2022-08-23T00:10:08.745Z,99982.97
2022-08-23T00:12:35.195Z,99977.63
2022-08-23T00:15:01.659Z,99979.41
2022-08-23T00:17:34.441Z,99981.22
2022-08-23T00:20:03.373Z,99976.63
2022-08-23T00:22:29.844Z,99988.38
2022-08-23T00:24:56.682Z,99987.81
2022-08-23T00:27:23.122Z,99980.34
2022-08-23T00:29:53.102Z,99990.69
2022-08-23T00:32:26.281Z,99985.81
2022-08-23T00:34:52.931Z,99992.97
2022-08-23T00:37:21.089Z,99990.03
2022-08-23T00:39:47.581Z,99987.06
2022-08-23T00:42:56.505Z,99995.16
2022-08-23T00:45:49.481Z,99995.50
2022-08-23T00:48:16.289Z,99997.00
2022-08-23T00:51:14.527Z,100006.59
2022-08-23T00:53:46.372Z,99992.16
2022-08-23T00:56:17.756Z,99991.25
2022-08-23T00:58:46.241Z,99996.16
2022-08-23T01:01:14.629Z,100009.81
2022-08-23T01:03:49.571Z,100015.84
2022-08-23T01:06:30.940Z,100013.47
2022-08-23T01:09:02.001Z,100003.81
2022-08-23T01:11:35.208Z,100008.66
2022-08-23T01:14:13.408Z,100005.81
2022-08-23T01:16:45.478Z,100010.59
2022-08-23T01:19:21.019Z,100006.69
2022-08-23T01:21:57.531Z,100003.53
2022-08-23T01:25:06.582Z,100002.06
2022-08-23T01:27:12.678Z,100002.91
2022-08-23T01:29:40.558Z,100003.75
2022-08-23T01:32:09.068Z,100001.47
2022-08-23T01:34:36.773Z,100010.56
2022-08-23T01:37:11.445Z,100012.13
2022-08-23T01:39:37.986Z,100005.94
2022-08-23T01:42:07.716Z,100007.81
2022-08-23T01:44:35.141Z,100012.69
2022-08-23T01:47:01.583Z,100009.13
2022-08-23T01:49:28.051Z,100004.94
2022-08-23T01:51:55.462Z,100008.88
2022-08-23T01:54:22.436Z,100011.25
2022-08-23T01:56:49.176Z,100015.22
2022-08-23T01:59:15.579Z,100005.41
2022-08-23T02:01:42.205Z,100010.00
2022-08-23T02:04:08.866Z,100005.06
2022-08-23T02:06:35.476Z,100010.19
2022-08-23T02:09:03.604Z,100013.19
2022-08-23T02:11:33.799Z,100011.66
2022-08-23T02:14:03.037Z,100010.63
2022-08-23T02:16:36.140Z,100016.06
2022-08-23T02:19:06.515Z,100010.78
2022-08-23T02:21:35.040Z,100020.38
2022-08-23T02:24:11.037Z,100016.25
2022-08-23T02:26:40.635Z,100024.53
2022-08-23T02:29:14.644Z,100017.25
2022-08-23T02:31:41.550Z,100015.44
2022-08-23T02:34:08.026Z,100011.94
2022-08-23T02:36:34.798Z,100014.75
2022-08-23T02:39:01.296Z,100020.66
2022-08-23T02:41:27.946Z,100020.56
2022-08-23T02:43:54.528Z,100021.69
2022-08-23T02:46:22.986Z,100027.53
2022-08-23T02:48:49.836Z,100021.25
2022-08-23T02:51:16.899Z,100027.09
2022-08-23T02:53:43.345Z,100032.34
2022-08-23T02:56:17.027Z,100038.81
2022-08-23T02:58:54.600Z,100040.34
2022-08-23T03:01:30.564Z,100042.97
2022-08-23T03:03:58.687Z,100045.41
2022-08-23T03:06:26.502Z,100039.59
2022-08-23T03:08:54.661Z,100043.72
2022-08-23T03:11:21.905Z,100045.19
2022-08-23T03:13:49.542Z,100037.72
2022-08-23T03:16:16.921Z,100044.44
2022-08-23T03:18:43.495Z,100043.09
2022-08-23T03:21:10.915Z,100048.03
2022-08-23T03:23:39.279Z,100046.13
2022-08-23T03:26:08.244Z,100042.63
2022-08-23T03:28:36.447Z,100042.81
2022-08-23T03:31:03.211Z,100056.03
2022-08-23T03:33:29.990Z,100048.56
2022-08-23T03:36:04.699Z,100046.31
2022-08-23T03:38:31.177Z,100051.31
2022-08-23T03:40:58.369Z,100062.16
2022-08-23T03:43:24.953Z,100060.91
2022-08-23T03:45:51.489Z,100064.59
2022-08-23T03:48:18.010Z,100064.69
2022-08-23T03:50:45.077Z,100062.53
2022-08-23T03:53:12.982Z,100057.78
2022-08-23T03:55:42.307Z,100061.69
2022-08-23T03:58:10.266Z,100061.16
2022-08-23T04:00:37.402Z,100067.41
2022-08-23T04:03:04.045Z,100071.03
2022-08-23T04:05:30.482Z,100072.06
2022-08-23T04:07:57.018Z,100077.31
2022-08-23T04:10:23.826Z,100073.25
2022-08-23T04:12:50.339Z,100070.56
2022-08-23T04:15:18.556Z,100078.13
2022-08-23T04:17:45.006Z,100084.53
2022-08-23T04:20:11.944Z,100087.78
2022-08-23T04:22:38.805Z,100087.78
2022-08-23T04:25:05.649Z,100093.75
2022-08-23T04:27:52.077Z,100095.84
2022-08-23T04:30:20.425Z,100104.25
2022-08-23T04:32:47.656Z,100109.75
2022-08-23T04:35:15.113Z,100099.72
2022-08-23T04:37:41.626Z,100109.16
2022-08-23T04:40:27.313Z,100108.22
2022-08-23T04:42:53.794Z,100111.25
2022-08-23T04:45:20.591Z,100113.25
2022-08-23T04:47:47.039Z,100120.25
2022-08-23T04:50:13.663Z,100126.34
2022-08-23T04:52:40.334Z,100134.75
2022-08-23T04:55:07.156Z,100131.97
2022-08-23T04:57:33.577Z,100129.16
2022-08-23T05:00:00.575Z,100128.97
2022-08-23T05:02:27.692Z,100135.72
2022-08-23T05:04:54.072Z,100139.09
2022-08-23T05:07:21.169Z,100135.50
2022-08-23T05:10:12.724Z,100132.53
2022-08-23T05:12:39.786Z,100139.72
2022-08-23T05:15:07.931Z,100154.00
2022-08-23T05:17:34.456Z,100152.44
2022-08-23T05:20:01.574Z,100154.66
2022-08-23T05:22:28.732Z,100151.84
2022-08-23T05:24:55.212Z,100160.22
2022-08-23T05:27:21.624Z,100158.19
2022-08-23T05:29:48.437Z,100159.69
2022-08-23T05:32:14.846Z,100163.69
2022-08-23T05:34:42.074Z,100164.81
2022-08-23T05:37:08.488Z,100168.16
2022-08-23T05:39:36.287Z,100165.13
2022-08-23T05:42:03.602Z,100165.25
2022-08-23T05:44:30.330Z,100175.19
2022-08-23T05:47:02.754Z,100175.84
2022-08-23T05:49:29.472Z,100177.81
2022-08-23T05:51:56.698Z,100179.19
2022-08-23T05:54:23.207Z,100181.47
2022-08-23T05:56:49.630Z,100190.66
2022-08-23T05:59:16.995Z,100192.28
2022-08-23T06:01:43.927Z,100189.22
2022-08-23T06:04:12.423Z,100195.97
2022-08-23T06:06:40.352Z,100200.56
2022-08-23T06:09:08.864Z,100196.00
2022-08-23T06:11:36.411Z,100189.13
2022-08-23T06:14:05.601Z,100197.44
2022-08-23T06:16:35.522Z,100193.56
2022-08-23T06:19:03.198Z,100202.22
2022-08-23T06:21:31.242Z,100203.06
2022-08-23T06:24:00.422Z,100205.44
2022-08-23T06:26:33.086Z,100204.25
2022-08-23T06:29:05.950Z,100197.56
2022-08-23T06:31:45.355Z,100197.53
2022-08-23T06:34:24.398Z,100196.56
2022-08-23T06:36:53.682Z,100205.69
2022-08-23T06:39:22.616Z,100204.69
2022-08-23T06:41:49.250Z,100209.47
2022-08-23T06:44:16.865Z,100209.13
2022-08-23T06:46:43.394Z,100212.06
2022-08-23T06:49:10.303Z,100216.69
2022-08-23T06:51:46.138Z,100212.63
2022-08-23T06:54:14.595Z,100209.59
2022-08-23T06:56:44.450Z,100214.47
2022-08-23T06:59:12.055Z,100216.44
2022-08-23T07:01:59.010Z,100220.25
2022-08-23T07:04:34.771Z,100220.88
2022-08-23T07:07:02.257Z,100218.69
2022-08-23T07:09:29.903Z,100221.03
2022-08-23T07:11:56.504Z,100229.78
2022-08-23T07:14:24.179Z,100229.75
2022-08-23T07:16:58.089Z,100232.34
2022-08-23T07:19:29.200Z,100225.47
2022-08-23T07:21:57.279Z,100228.34
2022-08-23T07:24:23.846Z,100225.00
2022-08-23T07:26:52.105Z,100231.03
2022-08-23T07:29:20.381Z,100230.19
2022-08-23T07:31:53.078Z,100229.19
2022-08-23T07:34:20.856Z,100228.38
2022-08-23T07:36:48.774Z,100222.44
2022-08-23T07:39:16.385Z,100225.63
2022-08-23T07:41:43.867Z,100218.09
2022-08-23T07:44:12.688Z,100217.06
2022-08-23T07:46:44.433Z,100224.81
2022-08-23T07:49:12.103Z,100223.38
2022-08-23T07:51:40.681Z,100230.47
2022-08-23T07:54:10.103Z,100231.25
2022-08-23T07:56:37.277Z,100227.94
2022-08-23T07:59:04.584Z,100226.66
2022-08-23T08:01:31.049Z,100240.16
2022-08-23T08:04:00.736Z,100234.50
2022-08-23T08:06:34.188Z,100242.28
2022-08-23T08:09:00.766Z,100241.16
2022-08-23T08:11:34.452Z,100235.72
2022-08-23T08:14:05.950Z,100245.75
2022-08-23T08:16:44.490Z,100245.69
2022-08-23T08:19:15.178Z,100243.81
2022-08-23T08:21:44.047Z,100234.16
2022-08-23T08:24:12.966Z,100234.59
2022-08-23T08:26:40.635Z,100245.13
2022-08-23T08:29:07.432Z,100241.59
2022-08-23T08:31:36.254Z,100243.75
2022-08-23T08:34:02.706Z,100236.38
2022-08-23T08:36:37.932Z,100250.69
2022-08-23T08:39:06.964Z,100250.78
2022-08-23T08:41:54.723Z,100252.25
2022-08-23T08:44:51.585Z,100251.66
2022-08-23T08:47:45.621Z,100247.94
2022-08-23T08:50:19.647Z,100253.72
2022-08-23T08:52:51.556Z,100252.72
2022-08-23T08:55:26.258Z,100249.50
2022-08-23T08:57:55.114Z,100252.94
2022-08-23T09:00:29.045Z,100250.06
2022-08-23T09:02:58.228Z,100254.66
2022-08-23T09:05:39.636Z,100253.97
2022-08-23T09:08:21.017Z,100249.25
2022-08-23T09:10:59.695Z,100251.47
2022-08-23T09:13:55.340Z,100248.13
2022-08-23T09:16:39.753Z,100252.06
2022-08-23T09:19:06.910Z,100250.56
2022-08-23T09:21:42.505Z,100249.91
2022-08-23T09:24:09.031Z,100246.34
2022-08-23T09:26:36.607Z,100245.31
2022-08-23T09:29:20.738Z,100242.59
2022-08-23T09:31:52.400Z,100237.28
2022-08-23T09:34:42.676Z,100231.91
2022-08-23T09:37:19.230Z,100229.97
2022-08-23T09:39:49.631Z,100229.38
2022-08-23T09:42:36.971Z,100226.59
2022-08-23T09:45:28.105Z,100228.50
2022-08-23T09:47:55.443Z,100230.75
2022-08-23T09:50:27.238Z,100224.09
2022-08-23T09:53:04.816Z,100223.09
2022-08-23T09:55:33.703Z,100228.88
2022-08-23T09:58:03.505Z,100216.28
2022-08-23T10:00:34.188Z,100223.59
2022-08-23T10:03:27.390Z,100220.56
2022-08-23T10:05:56.980Z,100221.25
2022-08-23T10:08:32.853Z,100221.84
2022-08-23T10:11:03.328Z,100220.16
2022-08-23T10:13:31.358Z,100215.53
2022-08-23T10:16:31.815Z,100221.00
2022-08-23T10:19:23.662Z,100210.91
2022-08-23T10:22:15.618Z,100207.25
2022-08-23T10:24:58.647Z,100208.41
2022-08-23T10:27:50.161Z,100217.69
2022-08-23T10:30:23.589Z,100213.63
2022-08-23T10:33:23.861Z,100207.56
2022-08-23T10:35:58.632Z,100214.63
2022-08-23T10:38:41.015Z,100214.13
2022-08-23T10:41:13.655Z,100210.34
2022-08-23T10:43:55.265Z,100210.34
2022-08-23T10:46:22.827Z,100206.72
2022-08-23T10:48:57.891Z,100194.91
2022-08-23T10:51:31.557Z,100189.06
2022-08-23T10:54:08.814Z,100189.06
2022-08-23T10:56:36.007Z,100187.03
2022-08-23T10:59:14.247Z,100190.31
2022-08-23T11:01:49.932Z,100180.00
2022-08-23T11:04:55.378Z,100185.28
2022-08-23T11:07:28.434Z,100173.66
2022-08-23T11:09:58.288Z,100173.16
2022-08-23T11:12:28.359Z,100172.44
2022-08-23T11:15:07.826Z,100170.47
2022-08-23T11:17:52.795Z,100163.78
2022-08-23T11:20:50.295Z,100169.38
2022-08-23T11:23:36.143Z,100165.84
2022-08-23T11:26:07.133Z,100169.03
2022-08-23T11:28:46.477Z,100168.44
2022-08-23T11:31:23.724Z,100167.72
2022-08-23T11:34:11.519Z,100153.97
2022-08-23T11:36:39.059Z,100159.34
2022-08-23T11:39:09.926Z,100151.06
2022-08-23T11:41:54.379Z,100156.56
2022-08-23T11:44:35.494Z,100155.19
2022-08-23T11:47:06.600Z,100150.28
2022-08-23T11:49:56.271Z,100150.91
2022-08-23T11:52:25.446Z,100150.88
2022-08-23T11:55:17.639Z,100154.00
2022-08-23T11:58:11.859Z,100134.47
2022-08-23T12:00:55.158Z,100139.22
2022-08-23T12:03:33.908Z,100136.84
2022-08-23T12:06:09.000Z,100138.81
2022-08-23T12:09:03.184Z,100133.19
2022-08-23T12:11:57.536Z,100137.47
2022-08-23T12:14:42.678Z,100130.81
2022-08-23T12:17:12.113Z,100130.69
2022-08-23T12:20:16.624Z,100122.13
2022-08-23T12:23:08.035Z,100121.00
2022-08-23T12:25:37.396Z,100128.47
2022-08-23T12:28:12.544Z,100124.53
2022-08-23T12:30:58.402Z,100126.25
2022-08-23T12:33:45.882Z,100132.59
2022-08-23T12:36:22.784Z,100129.63
2022-08-23T12:38:55.114Z,100135.28
2022-08-23T12:41:33.247Z,100134.75
2022-08-23T12:44:09.096Z,100132.34
2022-08-23T12:46:42.305Z,100133.97
2022-08-23T12:49:21.833Z,100118.72
2022-08-23T12:51:50.480Z,100124.06
2022-08-23T12:54:19.999Z,100123.28
2022-08-23T12:56:49.997Z,100108.81
2022-08-23T12:59:39.696Z,100126.16
2022-08-23T13:02:12.234Z,100111.63
2022-08-23T13:04:40.493Z,100111.38
2022-08-23T13:07:12.752Z,100105.09
2022-08-23T13:09:42.265Z,100097.38
2022-08-23T13:12:13.030Z,100095.56
2022-08-23T13:14:45.098Z,100097.69
2022-08-23T13:17:26.526Z,100100.03
2022-08-23T13:20:02.052Z,100098.69
2022-08-23T13:22:31.044Z,100089.59
2022-08-23T13:25:31.388Z,100094.22
2022-08-23T13:28:08.562Z,100092.50
2022-08-23T13:30:37.924Z,100094.50
2022-08-23T13:33:07.816Z,100097.25
2022-08-23T13:35:43.471Z,100090.16
2022-08-23T13:38:10.962Z,100099.56
2022-08-23T13:40:56.148Z,100098.91
2022-08-23T13:43:45.355Z,100100.34
2022-08-23T13:46:26.603Z,100098.78
2022-08-23T13:49:17.353Z,100097.50
2022-08-23T13:52:38.059Z,100093.47
2022-08-23T13:54:54.693Z,100090.97
2022-08-23T13:57:22.360Z,100096.94
2022-08-23T13:59:52.667Z,100099.97
2022-08-23T14:02:21.347Z,100111.13
2022-08-23T14:04:47.887Z,100103.69
2022-08-23T14:07:15.182Z,100097.53
2022-08-23T14:09:42.587Z,100088.94
2022-08-23T14:12:14.883Z,100095.69
2022-08-23T14:14:42.238Z,100099.38
2022-08-23T14:17:12.951Z,100096.47
2022-08-23T14:22:33.151Z,100089.44
2022-08-23T14:24:59.645Z,100085.97
2022-08-23T14:27:26.557Z,100089.50
2022-08-23T14:29:52.975Z,100087.31
2022-08-23T14:32:19.373Z,100086.06
2022-08-23T14:34:45.776Z,100085.50
2022-08-23T14:39:58.696Z,100082.22
2022-08-23T14:42:25.422Z,100077.47
2022-08-23T14:44:51.869Z,100081.00
2022-08-23T14:47:18.830Z,100078.03
2022-08-23T14:49:45.636Z,100083.38
2022-08-23T14:52:13.775Z,100079.47
2022-08-23T14:54:40.238Z,100078.03
2022-08-23T14:57:06.806Z,100075.59
2022-08-23T14:59:33.320Z,100079.41
2022-08-23T15:02:00.073Z,100083.75
2022-08-23T15:04:32.371Z,100076.28
2022-08-23T15:07:17.339Z,100077.38
2022-08-23T15:09:49.413Z,100080.44
2022-08-23T15:15:07.562Z,100069.44
2022-08-23T15:17:39.162Z,100055.53
2022-08-23T15:20:06.129Z,100071.97
2022-08-23T15:22:32.705Z,100062.81
2022-08-23T15:25:06.771Z,100062.88
2022-08-23T15:27:33.241Z,100065.91
2022-08-23T15:30:00.492Z,100054.72
2022-08-23T15:32:26.954Z,100054.50
2022-08-23T15:34:54.559Z,100064.13
2022-08-23T15:37:21.686Z,100060.97
2022-08-23T15:39:49.091Z,100058.44
2022-08-23T15:42:20.318Z,100055.56
2022-08-23T15:44:47.704Z,100055.88
2022-08-23T15:47:21.805Z,100049.03
2022-08-23T15:49:48.758Z,100054.34
2022-08-23T15:52:15.576Z,100062.78
2022-08-23T15:54:42.488Z,100051.91
2022-08-23T15:57:15.139Z,100060.63
2022-08-23T15:59:41.873Z,100053.72
2022-08-23T16:02:08.312Z,100050.88
2022-08-23T16:04:35.894Z,100063.47
2022-08-23T16:07:08.708Z,100061.78
2022-08-23T16:09:36.002Z,100063.34
2022-08-23T16:12:03.982Z,100055.97
2022-08-23T16:14:32.344Z,100062.16
2022-08-23T16:17:00.366Z,100061.31
2022-08-23T16:19:27.820Z,100059.56
2022-08-23T16:21:55.370Z,100064.22
2022-08-23T16:24:24.659Z,100059.31
2022-08-23T16:26:52.177Z,100063.09
2022-08-23T16:29:20.046Z,100057.41
2022-08-23T16:31:47.528Z,100056.13
2022-08-23T16:34:18.312Z,100054.31
2022-08-23T16:36:47.899Z,100062.22
2022-08-23T16:39:16.699Z,100063.34
2022-08-23T16:41:43.195Z,100060.41
2022-08-23T16:44:09.678Z,100059.22
2022-08-23T16:46:36.866Z,100055.53
2022-08-23T16:49:03.788Z,100058.97
2022-08-23T16:51:30.239Z,100055.53
2022-08-23T16:54:02.494Z,100051.16
2022-08-23T16:56:33.938Z,100060.63
2022-08-23T16:59:01.229Z,100056.84
2022-08-23T17:01:28.711Z,100062.78
2022-08-23T17:03:55.817Z,100055.25
2022-08-23T17:06:22.370Z,100058.78
2022-08-23T17:08:48.862Z,100067.28
2022-08-23T17:11:19.484Z,100061.50
2022-08-23T17:13:46.607Z,100057.38
2022-08-23T17:16:13.169Z,100067.72
2022-08-23T17:18:40.126Z,100068.44
2022-08-23T17:21:07.202Z,100065.94
2022-08-23T17:23:34.039Z,100073.38
2022-08-23T17:26:04.081Z,100076.22
2022-08-23T17:28:31.603Z,100074.44
2022-08-23T17:30:58.945Z,100073.47
2022-08-23T17:33:25.492Z,100080.53
2022-08-23T17:35:52.112Z,100073.75
2022-08-23T17:38:20.028Z,100075.59
2022-08-23T17:40:46.433Z,100079.75
2022-08-23T17:43:13.049Z,100083.34
2022-08-23T17:45:43.500Z,100082.41
2022-08-23T17:48:11.267Z,100088.41
2022-08-23T17:50:39.312Z,100088.31
2022-08-23T17:53:06.519Z,100089.03
2022-08-23T17:55:34.616Z,100093.66
2022-08-23T17:58:03.969Z,100093.84
2022-08-23T18:00:35.454Z,100088.63
2022-08-23T18:03:02.060Z,100100.13
2022-08-23T18:05:30.108Z,100096.19
2022-08-23T18:07:56.671Z,100104.94
2022-08-23T18:10:25.299Z,100112.00
2022-08-23T18:12:52.152Z,100108.38
2022-08-23T18:15:18.850Z,100108.72
2022-08-23T18:17:45.295Z,100108.56
2022-08-23T18:20:12.926Z,100114.00
2022-08-23T18:22:40.057Z,100111.91
2022-08-23T18:25:08.510Z,100116.22
2022-08-23T18:27:53.284Z,100115.66
2022-08-23T18:30:21.484Z,100115.31
2022-08-23T18:32:47.923Z,100120.56
2022-08-23T18:35:14.480Z,100121.19
2022-08-23T18:37:41.726Z,100118.72
2022-08-23T18:40:10.064Z,100122.75
2022-08-23T18:42:37.074Z,100135.41
2022-08-23T18:45:04.551Z,100128.66
2022-08-23T18:47:31.065Z,100132.06
2022-08-23T18:49:57.532Z,100139.44
2022-08-23T18:52:24.054Z,100135.72
2022-08-23T18:54:50.484Z,100139.47
2022-08-23T18:57:17.756Z,100139.44
2022-08-23T18:59:44.422Z,100146.63
2022-08-23T19:02:11.363Z,100151.31
2022-08-23T19:04:37.909Z,100153.38
2022-08-23T19:07:05.074Z,100160.59
2022-08-23T19:09:31.499Z,100160.53
2022-08-23T19:12:00.543Z,100160.38
2022-08-23T19:14:28.423Z,100168.38
2022-08-23T19:16:55.258Z,100165.84
2022-08-23T19:19:23.118Z,100177.38
2022-08-23T19:21:50.241Z,100172.53
2022-08-23T19:24:17.402Z,100175.25
2022-08-23T19:26:47.589Z,100178.97
2022-08-23T19:29:15.944Z,100174.25
2022-08-23T19:31:47.935Z,100177.78
2022-08-23T19:34:16.255Z,100177.03
2022-08-23T19:36:46.891Z,100183.34
2022-08-23T19:39:16.338Z,100181.88
2022-08-23T19:41:42.828Z,100187.38
2022-08-23T19:44:10.257Z,100183.06
2022-08-23T19:46:41.195Z,100186.06
2022-08-23T19:49:09.985Z,100193.81
2022-08-23T19:51:36.625Z,100194.94
2022-08-23T19:54:04.774Z,100196.47
2022-08-23T19:56:49.579Z,100192.31
2022-08-23T19:59:20.134Z,100198.22
2022-08-23T20:01:48.154Z,100188.91
2022-08-23T20:04:14.751Z,100202.47
2022-08-23T20:06:41.229Z,100210.88
2022-08-23T20:09:08.627Z,100205.81
2022-08-23T20:11:35.651Z,100208.84
2022-08-23T20:14:04.008Z,100213.28
2022-08-23T20:16:32.619Z,100213.50
2022-08-23T20:19:02.476Z,100221.72
2022-08-23T20:21:29.073Z,100221.69
2022-08-23T20:24:03.351Z,100219.13
2022-08-23T20:26:37.196Z,100224.53
2022-08-23T20:29:05.057Z,100221.75
2022-08-23T20:31:35.771Z,100225.03
2022-08-23T20:34:04.479Z,100225.44
2022-08-23T20:36:31.308Z,100224.41
2022-08-23T20:38:59.974Z,100223.13
2022-08-23T20:41:32.640Z,100217.44
2022-08-23T20:44:00.039Z,100224.34
2022-08-23T20:46:26.971Z,100215.34
2022-08-23T20:48:54.118Z,100215.25
2022-08-23T20:51:21.257Z,100226.41
2022-08-23T20:53:47.998Z,100219.13
2022-08-23T20:56:15.987Z,100219.41
2022-08-23T20:58:43.175Z,100217.16
2022-08-23T21:01:11.160Z,100226.28
2022-08-23T21:03:38.608Z,100223.84
2022-08-23T21:06:06.854Z,100230.56
2022-08-23T21:08:33.523Z,100229.34
2022-08-23T21:11:02.027Z,100229.72
2022-08-23T21:13:28.642Z,100239.09
2022-08-23T21:15:55.216Z,100244.84
2022-08-23T21:18:21.838Z,100240.25
2022-08-23T21:20:48.458Z,100249.03
2022-08-23T21:23:14.889Z,100234.06
2022-08-23T21:25:41.451Z,100245.69
2022-08-23T21:28:08.281Z,100239.28
2022-08-23T21:30:34.726Z,100241.34
2022-08-23T21:33:03.447Z,100239.56
2022-08-23T21:35:30.067Z,100244.66
2022-08-23T21:37:56.475Z,100240.44
2022-08-23T21:40:23.410Z,100238.47
2022-08-23T21:42:49.937Z,100239.94
2022-08-23T21:45:16.345Z,100242.78
2022-08-23T21:47:43.094Z,100245.91
2022-08-23T21:50:10.238Z,100247.00
2022-08-23T21:52:36.635Z,100245.50
2022-08-23T21:55:03.269Z,100247.75
2022-08-23T21:57:29.746Z,100243.09
2022-08-23T21:59:57.013Z,100247.78
2022-08-23T22:02:23.525Z,100244.25
2022-08-23T22:04:50.317Z,100241.34
2022-08-23T22:07:16.755Z,100246.22
2022-08-23T22:09:43.175Z,100245.94
2022-08-23T22:12:09.766Z,100245.84
2022-08-23T22:14:36.488Z,100247.34
2022-08-23T22:17:03.527Z,100241.44
2022-08-23T22:19:29.932Z,100244.25
2022-08-23T22:21:56.661Z,100249.09
2022-08-23T22:24:25.966Z,100242.94
2022-08-23T22:26:53.321Z,100243.50
2022-08-23T22:29:19.722Z,100245.22
2022-08-23T22:31:47.774Z,100242.06
2022-08-23T22:34:14.443Z,100240.22
2022-08-23T22:36:41.934Z,100244.00
2022-08-23T22:39:08.804Z,100241.63
2022-08-23T22:41:35.303Z,100246.34
2022-08-23T22:44:03.314Z,100245.09
2022-08-23T22:46:31.711Z,100249.41
2022-08-23T22:48:58.344Z,100260.31
2022-08-23T22:51:29.206Z,100263.31
2022-08-23T22:53:59.494Z,100259.97
2022-08-23T22:56:31.236Z,100263.31
2022-08-23T22:58:58.755Z,100258.09
2022-08-23T23:01:31.344Z,100256.41
2022-08-23T23:03:59.181Z,100247.69
2022-08-23T23:06:28.084Z,100246.38
2022-08-23T23:08:56.081Z,100256.22
2022-08-23T23:11:23.900Z,100250.75
2022-08-23T23:13:50.672Z,100254.44
2022-08-23T23:16:22.785Z,100261.34
2022-08-23T23:19:09.201Z,100263.59
2022-08-23T23:21:40.026Z,100260.66
2022-08-23T23:24:06.632Z,100264.72
2022-08-23T23:26:33.263Z,100258.72
2022-08-23T23:28:59.971Z,100255.84
2022-08-23T23:31:26.730Z,100260.16
2022-08-23T23:33:53.210Z,100267.31
2022-08-23T23:36:20.788Z,100271.88
2022-08-23T23:38:47.449Z,100270.50
2022-08-23T23:41:14.123Z,100267.06
2022-08-23T23:43:41.989Z,100271.78
2022-08-23T23:46:11.196Z,100280.50
2022-08-23T23:48:42.390Z,100272.69
2022-08-23T23:51:10.792Z,100277.97
2022-08-23T23:53:38.666Z,100277.75
2022-08-23T23:56:09.995Z,100278.50
2022-08-23T23:58:37.858Z,100284.00
